Time;durP1;ratioP1;P1;durP2;ratioP2;P2;SDS_P1;SDS_P2;PMS_P1;PMS_P2;Temp;Humidity;BMP_temperature;BMP_pressure;BME280_temperature;BME280_humidity;BME280_pressure;Samples;Min_cycle;Max_cycle;Signal;HPM_P1;HPM_P2
2023/05/30 00:01:23;;;;;;;5.55;3.60;;;;;;;17.96;53.04;98889.84;5009580;27;103725;-70
2023/05/30 00:03:51;;;;;;;5.20;3.42;;;;;;;18.13;52.56;98893.53;5008049;27;103287;-70
2023/05/30 00:06:19;;;;;;;3.90;3.60;;;;;;;18.02;53.02;98900.94;5008239;27;103242;-70
2023/05/30 00:08:47;;;;;;;3.28;2.90;;;;;;;18.78;51.25;98896.72;5013396;27;103945;-70
2023/05/30 00:11:18;;;;;;;3.58;3.28;;;;;;;18.67;51.17;98908.50;5012646;27;103860;-70
2023/05/30 00:13:46;;;;;;;2.67;2.40;;;;;;;19.05;50.04;98902.75;5007755;27;103248;-70
2023/05/30 00:16:14;;;;;;;4.18;3.65;;;;;;;19.04;50.71;98905.56;5005527;27;103189;-70
2023/05/30 00:18:44;;;;;;;3.60;3.15;;;;;;;19.16;50.46;98904.31;5010676;28;104415;-70
2023/05/30 00:21:11;;;;;;;4.35;3.75;;;;;;;19.05;51.02;98913.47;5015403;27;103363;-70
2023/05/30 00:23:39;;;;;;;5.93;4.10;;;;;;;18.45;54.28;98922.34;4993754;27;104307;-70
2023/05/30 00:26:09;;;;;;;4.38;3.20;;;;;;;18.76;52.84;98923.63;5012407;27;103794;-69
2023/05/30 00:28:37;;;;;;;4.25;3.80;;;;;;;18.47;53.22;98931.91;5007025;27;102591;-70
2023/05/30 00:31:06;;;;;;;3.80;3.42;;;;;;;18.41;54.15;98924.50;4986174;28;104141;-70
2023/05/30 00:33:34;;;;;;;3.38;3.08;;;;;;;18.08;54.58;98930.56;4990387;27;103265;-70
2023/05/30 00:36:03;;;;;;;4.30;3.72;;;;;;;18.35;54.14;98929.66;5008778;27;103187;-70
2023/05/30 00:38:31;;;;;;;4.72;3.72;;;;;;;17.64;56.43;98929.59;4985869;27;103246;-70
2023/05/30 00:40:59;;;;;;;5.63;3.97;;;;;;;17.67;56.88;98923.97;4994086;28;104755;-70
2023/05/30 00:43:27;;;;;;;4.37;3.70;;;;;;;17.51;57.40;98922.91;4987486;27;103378;-70
2023/05/30 00:45:55;;;;;;;3.63;3.17;;;;;;;18.09;55.56;98928.72;4991904;28;104138;-70
2023/05/30 00:48:24;;;;;;;3.40;2.90;;;;;;;18.28;54.55;98923.22;5003955;27;102736;-70
2023/05/30 00:50:53;;;;;;;5.10;3.70;;;;;;;17.96;55.69;98921.91;4990072;28;103085;-70
2023/05/30 00:53:24;;;;;;;5.75;3.88;;;;;;;17.88;54.11;98916.50;4994529;28;104271;-70
2023/05/30 00:55:52;;;;;;;4.75;4.10;;;;;;;18.01;54.35;98915.28;4992911;28;104330;-70
2023/05/30 00:58:22;;;;;;;5.10;4.10;;;;;;;17.68;54.77;98920.31;4994138;27;102780;-69
2023/05/30 01:00:51;;;;;;;4.15;3.38;;;;;;;17.88;54.51;98916.50;4984389;28;104525;-70
2023/05/30 01:03:22;;;;;;;5.63;3.88;;;;;;;17.67;54.15;98917.78;5012155;27;103593;-70
2023/05/30 01:05:50;;;;;;;5.32;4.13;;;;;;;17.52;54.79;98922.72;5013877;27;103267;-70
2023/05/30 01:08:20;;;;;;;4.60;4.10;;;;;;;17.59;54.61;98923.88;5004877;27;102643;-70
2023/05/30 01:10:56;;;;;;;6.43;4.10;;;;;;;17.60;54.74;98920.19;5010561;27;103077;-70
2023/05/30 01:13:33;;;;;;;4.13;3.72;;;;;;;17.76;54.50;98928.41;4992140;28;104520;-70
2023/05/30 01:16:08;;;;;;;5.63;3.80;;;;;;;17.68;54.40;98920.31;4997375;27;104243;-70
2023/05/30 01:18:40;;;;;;;4.73;3.70;;;;;;;18.01;53.50;98920.63;5008154;27;103974;-70
2023/05/30 01:21:10;;;;;;;5.23;4.20;;;;;;;17.61;54.22;98916.53;4980638;28;104558;-70
2023/05/30 01:23:53;;;;;;;4.55;3.90;;;;;;;17.92;53.45;98917.88;4993782;28;104137;-70
2023/05/30 01:26:33;;;;;;;4.88;3.88;;;;;;;18.04;53.58;98913.16;5015403;27;103224;-70
2023/05/30 01:29:03;;;;;;;5.30;4.40;;;;;;;17.75;53.79;98905.34;4995117;28;102668;-70
2023/05/30 01:31:33;;;;;;;6.53;4.10;;;;;;;17.54;54.64;98902.13;4991345;28;103029;-70
2023/05/30 01:34:04;;;;;;;5.33;3.90;;;;;;;17.66;53.88;98895.53;4995181;27;104183;-70
2023/05/30 01:36:31;;;;;;;3.88;3.47;;;;;;;18.26;52.91;98899.31;5012949;28;103397;-70
2023/05/30 01:38:59;;;;;;;4.07;3.53;;;;;;;18.49;52.32;98895.19;4996505;28;102992;-70
2023/05/30 01:41:36;;;;;;;3.58;3.28;;;;;;;18.64;52.04;98899.97;4985934;28;103169;-70
2023/05/30 01:44:16;;;;;;;4.07;2.65;;;;;;;18.68;51.94;98899.50;4992508;28;105285;-70
2023/05/30 01:46:51;;;;;;;3.30;3.00;;;;;;;18.49;52.77;98899.69;4993879;27;103974;-70
2023/05/30 01:49:28;;;;;;;4.68;3.83;;;;;;;18.43;53.25;98902.97;4989970;28;103019;-70
2023/05/30 01:52:00;;;;;;;4.10;3.70;;;;;;;18.09;53.86;98907.34;4995397;28;103860;-70
2023/05/30 01:54:30;;;;;;;4.55;3.88;;;;;;;17.72;54.68;98905.63;5012674;28;103279;-70
2023/05/30 01:57:06;;;;;;;6.43;4.05;;;;;;;17.52;54.88;98904.03;4992567;28;103335;-70
2023/05/30 01:59:38;;;;;;;6.50;4.20;;;;;;;16.95;56.62;98913.19;4997062;27;102699;-70
2023/05/30 02:02:08;;;;;;;4.78;3.80;;;;;;;17.20;56.28;98901.84;4984225;27;102938;-70
2023/05/30 02:04:36;;;;;;;5.38;3.50;;;;;;;17.52;55.12;98906.72;5000116;27;104545;-70
2023/05/30 02:07:04;;;;;;;5.00;4.10;;;;;;;16.93;57.74;98901.78;4989743;28;104185;-70
2023/05/30 02:09:32;;;;;;;5.57;4.03;;;;;;;17.02;56.87;98902.72;5013296;27;102656;-70
2023/05/30 02:12:01;;;;;;;5.87;3.97;;;;;;;16.98;57.28;98904.03;4985443;28;103157;-70
2023/05/30 02:14:31;;;;;;;4.43;3.97;;;;;;;16.60;58.49;98904.97;4993055;27;104267;-70
2023/05/30 02:17:01;;;;;;;4.95;3.78;;;;;;;16.70;58.24;98908.47;5020314;27;103250;-70
2023/05/30 02:19:29;;;;;;;5.53;4.13;;;;;;;16.78;57.90;98904.09;4995154;27;102782;-70
2023/05/30 02:21:56;;;;;;;5.53;4.03;;;;;;;16.86;57.68;98907.84;5005642;27;102833;-70
2023/05/30 02:24:24;;;;;;;4.68;4.03;;;;;;;16.68;58.33;98908.59;4999357;28;104273;-70
2023/05/30 02:26:53;;;;;;;5.50;4.10;;;;;;;16.76;57.70;98903.38;5000405;27;104154;-70
2023/05/30 02:29:21;;;;;;;4.93;3.95;;;;;;;17.18;56.65;98905.63;5012025;27;103034;-70
2023/05/30 02:31:49;;;;;;;4.53;3.53;;;;;;;17.66;54.69;98906.22;4985908;28;102804;-70
2023/05/30 02:34:18;;;;;;;5.33;3.90;;;;;;;17.06;56.21;98918.34;4995210;28;104324;-70
2023/05/30 02:36:46;;;;;;;5.03;3.78;;;;;;;17.37;55.71;98910.88;4993146;28;104285;-70
2023/05/30 02:39:14;;;;;;;5.30;4.15;;;;;;;16.93;57.34;98917.78;4999360;28;105281;-70
2023/05/30 02:41:43;;;;;;;5.78;4.07;;;;;;;16.55;58.39;98918.75;4988177;28;102749;-69
2023/05/30 02:44:11;;;;;;;5.93;4.15;;;;;;;16.75;58.44;98912.41;5012612;27;103691;-69
2023/05/30 02:46:41;;;;;;;5.85;4.30;;;;;;;16.78;58.07;98920.13;4998236;28;106163;-69
2023/05/30 02:49:09;;;;;;;5.93;4.03;;;;;;;16.88;57.66;98908.53;5005825;27;102978;-69
2023/05/30 02:51:42;;;;;;;4.70;3.70;;;;;;;16.81;57.75;98914.47;4991320;28;103929;-69
2023/05/30 02:54:16;;;;;;;4.40;3.97;;;;;;;16.93;57.63;98911.63;4992405;28;104968;-69
2023/05/30 02:57:06;;;;;;;5.50;4.20;;;;;;;16.75;57.96;98909.72;4992422;28;103710;-69
2023/05/30 02:59:53;;;;;;;3.80;3.40;;;;;;;17.37;56.40;98905.53;5015817;28;102507;-69
2023/05/30 03:02:21;;;;;;;5.72;4.15;;;;;;;16.91;57.35;98918.94;4993098;28;104465;-69
2023/05/30 03:04:49;;;;;;;6.18;4.35;;;;;;;16.80;57.54;98923.47;4997594;28;105657;-69
2023/05/30 03:07:21;;;;;;;5.45;4.32;;;;;;;16.51;59.25;98914.63;4994968;27;103192;-69
2023/05/30 03:09:49;;;;;;;5.13;4.43;;;;;;;16.18;60.23;98931.09;4983738;28;102768;-71
2023/05/30 03:12:19;;;;;;;5.30;4.03;;;;;;;16.52;59.21;98928.81;4985143;27;103037;-70
2023/05/30 03:14:47;;;;;;;5.32;3.95;;;;;;;16.78;58.68;98930.78;4990732;28;104084;-71
2023/05/30 03:17:15;;;;;;;5.45;4.00;;;;;;;16.49;59.70;98924.63;5009505;27;103279;-71
2023/05/30 03:19:45;;;;;;;3.53;3.15;;;;;;;17.26;56.76;98924.44;4999743;28;103094;-72
2023/05/30 03:22:13;;;;;;;4.82;3.60;;;;;;;17.42;55.59;98929.97;4987975;28;102646;-70
2023/05/30 03:24:43;;;;;;;5.28;4.22;;;;;;;16.84;57.78;98924.03;4988386;28;104227;-70
2023/05/30 03:27:11;;;;;;;4.82;3.90;;;;;;;16.87;57.98;98923.72;5011275;27;103964;-71
2023/05/30 03:29:40;;;;;;;3.40;3.00;;;;;;;17.45;55.89;98924.34;4990329;28;102938;-71
2023/05/30 03:32:11;;;;;;;4.22;3.83;;;;;;;17.62;55.16;98928.91;4992817;28;104059;-72
2023/05/30 03:34:45;;;;;;;4.88;3.70;;;;;;;17.74;54.59;98930.38;4988162;28;107509;-71
2023/05/30 03:37:18;;;;;;;3.38;3.08;;;;;;;17.87;54.75;98933.53;4994777;28;103263;-71
2023/05/30 03:39:47;;;;;;;3.75;3.35;;;;;;;17.88;54.61;98937.06;5005959;27;102694;-72
2023/05/30 03:42:17;;;;;;;4.55;3.70;;;;;;;17.87;54.88;98944.22;4993466;28;103945;-69
2023/05/30 03:44:46;;;;;;;5.35;3.78;;;;;;;17.88;55.41;98945.06;4999421;28;103421;-69
2023/05/30 03:47:14;;;;;;;5.32;4.20;;;;;;;17.58;57.00;98938.19;5006430;27;103198;-69
2023/05/30 03:49:42;;;;;;;4.27;3.53;;;;;;;17.33;58.29;98941.53;4996829;28;102809;-69
2023/05/30 03:52:10;;;;;;;4.00;3.60;;;;;;;17.62;56.96;98947.63;4988215;28;102983;-69
2023/05/30 03:54:38;;;;;;;4.40;3.90;;;;;;;17.53;57.35;98942.28;5008841;27;103512;-69
2023/05/30 03:57:09;;;;;;;3.15;2.85;;;;;;;17.54;58.01;98950.19;4992020;28;104580;-69
2023/05/30 03:59:37;;;;;;;6.55;3.70;;;;;;;17.69;58.05;98955.84;5016316;27;103058;-69
2023/05/30 04:02:05;;;;;;;5.13;4.43;;;;;;;17.55;57.58;98957.19;4993722;28;106041;-69
2023/05/30 04:04:33;;;;;;;3.30;3.00;;;;;;;17.61;58.03;98951.25;4995972;28;104329;-69
2023/05/30 04:07:01;;;;;;;3.30;3.00;;;;;;;17.59;58.07;98947.91;5006754;28;103260;-69
2023/05/30 04:09:29;;;;;;;4.75;3.83;;;;;;;17.28;59.87;98959.81;4987100;28;102602;-69
2023/05/30 04:11:57;;;;;;;6.40;4.20;;;;;;;17.06;60.19;98965.53;5009057;28;102980;-69
2023/05/30 04:14:26;;;;;;;5.60;4.60;;;;;;;16.75;61.63;98971.09;4994278;28;104146;-69
2023/05/30 04:16:54;;;;;;;5.10;4.32;;;;;;;16.77;61.51;98966.44;4991729;28;104267;-69
2023/05/30 04:19:21;;;;;;;4.32;3.50;;;;;;;17.06;60.09;98970.88;4995258;28;103471;-69
2023/05/30 04:21:49;;;;;;;5.78;3.92;;;;;;;17.08;60.47;98968.88;4994061;28;104068;-69
2023/05/30 04:24:20;;;;;;;5.72;3.88;;;;;;;17.21;59.97;98974.72;4994714;28;103864;-69
2023/05/30 04:26:49;;;;;;;5.50;4.28;;;;;;;17.18;60.95;98975.03;4986277;28;103520;-69
2023/05/30 04:29:19;;;;;;;4.77;3.37;;;;;;;17.36;59.69;98982.16;5014122;28;102804;-70
2023/05/30 04:31:48;;;;;;;4.60;3.58;;;;;;;17.47;59.56;98970.44;4996598;27;103953;-70
2023/05/30 04:34:17;;;;;;;3.92;3.28;;;;;;;17.44;59.94;98970.72;4994273;28;103757;-70
2023/05/30 04:36:45;;;;;;;5.85;4.75;;;;;;;17.19;61.22;98976.72;4996261;28;103292;-70
2023/05/30 04:39:13;;;;;;;5.77;4.40;;;;;;;17.19;61.73;98976.72;4989981;28;103085;-70
2023/05/30 04:41:41;;;;;;;3.63;3.33;;;;;;;17.40;61.10;98980.03;4997757;28;104107;-71
2023/05/30 04:44:11;;;;;;;5.50;3.67;;;;;;;17.43;61.39;98990.41;4992597;28;103646;-71
2023/05/30 04:46:41;;;;;;;6.85;4.97;;;;;;;16.70;64.18;98986.66;5014325;28;103452;-71
2023/05/30 04:49:10;;;;;;;3.80;3.50;;;;;;;17.29;62.64;98994.38;4988892;28;102934;-71
2023/05/30 04:51:38;;;;;;;4.63;3.83;;;;;;;17.37;63.08;98993.69;4994992;27;104158;-71
2023/05/30 04:54:06;;;;;;;4.00;3.30;;;;;;;17.61;62.44;98994.00;5015533;28;103752;-71
2023/05/30 04:56:34;;;;;;;9.57;5.63;;;;;;;17.48;62.96;99006.84;5005791;27;103577;-72
2023/05/30 04:59:02;;;;;;;3.73;3.43;;;;;;;17.79;62.06;98997.59;4992674;28;102977;-71
2023/05/30 05:01:30;;;;;;;3.72;3.33;;;;;;;17.91;60.46;99001.72;5013337;28;103092;-71
2023/05/30 05:04:00;;;;;;;3.47;3.17;;;;;;;17.96;60.62;99004.78;5013367;27;103355;-74
2023/05/30 05:06:31;;;;;;;4.75;3.67;;;;;;;18.12;60.47;99011.31;4991945;28;104184;-75
2023/05/30 05:08:59;;;;;;;4.20;3.80;;;;;;;18.11;59.18;99012.28;5006994;28;102636;-75
2023/05/30 05:11:27;;;;;;;6.20;4.30;;;;;;;17.90;59.98;99010.75;5015505;28;102832;-76
2023/05/30 05:13:55;;;;;;;4.77;4.27;;;;;;;17.98;58.20;99006.47;5012788;28;103940;-73
2023/05/30 05:16:23;;;;;;;5.63;4.28;;;;;;;18.22;57.92;99012.91;5006284;28;103237;-75
2023/05/30 05:18:51;;;;;;;3.47;3.17;;;;;;;18.22;58.73;99017.41;5003632;28;102688;-75
2023/05/30 05:21:18;;;;;;;5.90;4.07;;;;;;;17.85;59.60;99015.66;5012733;27;103967;-74
2023/05/30 05:23:48;;;;;;;5.60;4.70;;;;;;;17.38;60.83;99019.38;4985887;28;104181;-74
2023/05/30 05:26:17;;;;;;;6.80;4.45;;;;;;;17.12;61.85;99018.34;4989580;28;103234;-73
2023/05/30 05:28:45;;;;;;;6.77;4.67;;;;;;;17.24;61.85;99023.34;5011111;27;105582;-74
2023/05/30 05:31:13;;;;;;;6.75;4.72;;;;;;;17.36;61.03;99016.00;5011504;27;104044;-74
2023/05/30 05:33:41;;;;;;;6.82;4.60;;;;;;;17.59;60.67;99024.53;5008663;27;103169;-74
2023/05/30 05:36:08;;;;;;;5.80;4.57;;;;;;;17.36;61.50;99021.34;5006823;27;103583;-75
2023/05/30 05:38:36;;;;;;;5.78;4.40;;;;;;;17.42;61.57;99020.78;5000980;27;102729;-74
2023/05/30 05:41:06;;;;;;;5.60;4.53;;;;;;;17.20;61.65;99031.81;5000381;28;104006;-75
2023/05/30 05:43:34;;;;;;;7.80;4.55;;;;;;;17.43;60.61;99040.31;5009001;27;104008;-75
2023/05/30 05:46:01;;;;;;;5.40;4.57;;;;;;;17.17;61.23;99032.09;5006703;27;103326;-74
2023/05/30 05:48:29;;;;;;;5.60;4.23;;;;;;;17.48;60.73;99030.88;5010580;27;102745;-74
2023/05/30 05:50:57;;;;;;;5.35;4.30;;;;;;;17.60;60.33;99040.41;5011352;28;102697;-74
2023/05/30 05:53:25;;;;;;;6.73;4.60;;;;;;;17.59;60.74;99035.22;5013377;27;103139;-74
2023/05/30 05:55:54;;;;;;;5.75;4.30;;;;;;;17.17;61.00;99034.75;5004647;27;103186;-74
2023/05/30 05:58:23;;;;;;;5.85;4.57;;;;;;;17.47;59.47;99037.19;5010097;28;102871;-74
2023/05/30 06:00:52;;;;;;;6.25;4.40;;;;;;;17.60;61.54;99040.41;5012543;27;103216;-74
2023/05/30 06:03:20;;;;;;;6.78;4.72;;;;;;;17.51;60.60;99041.28;5014335;27;103303;-74
2023/05/30 06:05:48;;;;;;;6.82;4.32;;;;;;;17.12;60.82;99048.53;5011581;28;103252;-74
2023/05/30 06:08:15;;;;;;;5.40;4.57;;;;;;;17.58;60.37;99049.56;5009994;28;102677;-75
2023/05/30 06:10:43;;;;;;;7.40;4.80;;;;;;;17.43;60.50;99053.66;5012167;28;102979;-74
2023/05/30 06:13:15;;;;;;;6.63;4.07;;;;;;;17.73;59.62;99048.94;5015677;27;103301;-74
2023/05/30 06:15:44;;;;;;;5.85;4.28;;;;;;;17.53;60.31;99055.31;4990770;28;103211;-74
2023/05/30 06:18:12;;;;;;;5.30;4.10;;;;;;;17.60;60.04;99052.94;4996300;27;102973;-74
2023/05/30 06:20:40;;;;;;;5.22;4.10;;;;;;;17.85;60.29;99058.44;5012531;27;103946;-74
2023/05/30 06:23:08;;;;;;;7.28;4.25;;;;;;;18.14;59.47;99060.97;5007002;28;103344;-74
2023/05/30 06:25:36;;;;;;;7.28;4.20;;;;;;;17.71;59.76;99060.78;5014234;27;103669;-73
2023/05/30 06:28:04;;;;;;;5.20;4.03;;;;;;;18.20;58.83;99064.88;5006871;27;103954;-73
2023/05/30 06:30:32;;;;;;;7.07;4.30;;;;;;;17.62;59.70;99070.50;5007796;27;104548;-74
2023/05/30 06:33:01;;;;;;;6.32;3.80;;;;;;;17.77;58.89;99069.03;4992072;28;104365;-74
2023/05/30 06:35:29;;;;;;;6.15;4.20;;;;;;;18.38;56.96;99057.72;5009944;27;102972;-74
2023/05/30 06:37:57;;;;;;;6.45;3.95;;;;;;;18.40;56.30;99067.28;5013599;28;102638;-74
2023/05/30 06:40:25;;;;;;;4.97;4.00;;;;;;;18.37;56.90;99072.94;5014231;28;103633;-74
2023/05/30 06:42:53;;;;;;;6.68;3.95;;;;;;;18.72;56.57;99069.47;5012088;27;104020;-74
2023/05/30 06:45:20;;;;;;;5.95;4.00;;;;;;;18.39;56.76;99075.44;5007429;28;103284;-74
2023/05/30 06:47:48;;;;;;;6.68;4.43;;;;;;;18.36;56.42;99073.06;5011525;27;105063;-74
2023/05/30 06:50:18;;;;;;;4.37;3.77;;;;;;;18.42;56.81;99080.50;5011851;27;103866;-74
2023/05/30 06:52:45;;;;;;;6.57;3.80;;;;;;;18.58;54.54;99075.34;5009529;27;103368;-74
2023/05/30 06:55:15;;;;;;;6.90;4.13;;;;;;;18.09;57.73;99078.44;4992324;27;103447;-74
2023/05/30 06:57:43;;;;;;;5.63;3.90;;;;;;;18.11;57.09;99071.94;5009166;27;102835;-74
2023/05/30 07:00:16;;;;;;;6.07;3.88;;;;;;;18.66;55.78;99078.13;5011107;27;102673;-74
2023/05/30 07:02:44;;;;;;;5.80;4.28;;;;;;;18.05;56.13;99077.06;5020168;28;104030;-74
2023/05/30 07:05:12;;;;;;;5.00;3.80;;;;;;;18.33;56.27;99076.06;5013353;27;103539;-74
2023/05/30 07:07:42;;;;;;;5.18;3.35;;;;;;;18.83;55.05;99074.59;4989655;28;102620;-74
2023/05/30 07:10:11;;;;;;;5.43;4.07;;;;;;;19.35;53.55;99064.78;5005910;28;103009;-74
2023/05/30 07:12:41;;;;;;;6.32;3.63;;;;;;;18.71;55.49;99070.47;5009250;28;103765;-74
2023/05/30 07:15:10;;;;;;;6.00;3.72;;;;;;;18.66;54.64;99074.59;4989814;28;104239;-74
2023/05/30 07:17:38;;;;;;;5.82;3.90;;;;;;;18.37;54.68;99072.09;4991184;28;102673;-74
2023/05/30 07:20:07;;;;;;;6.30;3.97;;;;;;;18.61;55.41;99074.22;5010504;28;102761;-74
2023/05/30 07:22:37;;;;;;;7.43;4.20;;;;;;;18.62;54.46;99074.03;5009672;28;104004;-74
2023/05/30 07:25:07;;;;;;;6.63;4.60;;;;;;;18.72;55.24;99072.16;5005566;27;103210;-74
2023/05/30 07:27:35;;;;;;;6.83;4.90;;;;;;;18.95;52.58;99083.19;5007007;27;103327;-74
2023/05/30 07:30:03;;;;;;;6.25;4.00;;;;;;;18.54;55.25;99073.97;5006003;28;104145;-73
2023/05/30 07:32:31;;;;;;;6.03;3.72;;;;;;;19.39;53.45;99076.06;5005676;28;103764;-73
2023/05/30 07:34:58;;;;;;;6.90;4.20;;;;;;;18.96;53.74;99079.53;5007015;28;103298;-74
2023/05/30 07:37:26;;;;;;;6.15;3.97;;;;;;;19.55;52.30;99076.16;5009358;27;102650;-73
2023/05/30 07:39:54;;;;;;;6.18;4.03;;;;;;;18.99;54.23;99081.91;5009794;28;103499;-74
2023/05/30 07:42:23;;;;;;;5.00;3.90;;;;;;;19.32;52.91;99080.31;5009175;28;103285;-75
2023/05/30 07:44:51;;;;;;;4.63;3.53;;;;;;;20.34;50.31;99074.03;5013555;27;104885;-74
2023/05/30 07:47:19;;;;;;;7.00;3.80;;;;;;;19.69;52.47;99072.88;5015668;28;103273;-73
2023/05/30 07:49:47;;;;;;;7.15;4.00;;;;;;;20.34;50.66;99073.19;5008704;28;102971;-73
2023/05/30 07:52:15;;;;;;;5.70;4.03;;;;;;;20.64;50.12;99065.38;5012597;28;103499;-74
2023/05/30 07:54:43;;;;;;;6.93;3.97;;;;;;;19.86;50.82;99069.28;4992594;28;103255;-74
2023/05/30 07:57:12;;;;;;;6.40;4.30;;;;;;;20.27;50.21;99066.81;5008846;28;102647;-74
2023/05/30 07:59:42;;;;;;;5.68;3.83;;;;;;;20.22;50.21;99064.56;5008892;28;104015;-74
2023/05/30 08:02:10;;;;;;;5.15;3.70;;;;;;;20.56;48.97;99061.84;5010304;27;104327;-73
2023/05/30 08:04:38;;;;;;;7.50;3.80;;;;;;;20.51;50.22;99075.75;5010128;28;103225;-73
2023/05/30 08:07:07;;;;;;;4.50;3.60;;;;;;;21.41;47.77;99065.91;4995612;28;102915;-73
2023/05/30 08:09:36;;;;;;;5.80;4.00;;;;;;;21.07;49.06;99069.63;5013122;27;102676;-73
2023/05/30 08:12:05;;;;;;;6.57;3.70;;;;;;;21.38;47.88;99062.56;5007158;28;104160;-73
2023/05/30 08:14:33;;;;;;;7.13;3.90;;;;;;;21.94;46.78;99060.75;5009387;28;103235;-74
2023/05/30 08:17:02;;;;;;;5.00;4.00;;;;;;;21.02;49.24;99060.38;5008018;28;103065;-74
2023/05/30 08:19:31;;;;;;;6.13;3.35;;;;;;;22.41;46.73;99061.53;5005270;28;103628;-74
2023/05/30 08:21:59;;;;;;;5.85;3.92;;;;;;;21.68;47.04;99060.97;5004915;28;103328;-73
2023/05/30 08:24:28;;;;;;;6.73;3.57;;;;;;;23.62;44.72;99049.81;5007988;28;102876;-73
2023/05/30 08:26:56;;;;;;;6.30;3.95;;;;;;;22.16;45.54;99051.06;5010250;27;103304;-73
2023/05/30 08:29:24;;;;;;;6.03;3.63;;;;;;;22.89;45.88;99059.53;5010495;27;103821;-73
2023/05/30 08:31:55;;;;;;;7.35;4.07;;;;;;;22.74;45.30;99054.09;4988668;27;104193;-73
2023/05/30 08:34:25;;;;;;;5.38;3.75;;;;;;;22.16;45.14;99054.59;4993136;28;104621;-73
2023/05/30 08:36:53;;;;;;;4.78;3.70;;;;;;;24.61;41.52;99043.00;5010624;27;103067;-73
2023/05/30 08:39:22;;;;;;;5.90;3.58;;;;;;;22.38;44.42;99056.50;5009124;28;103452;-72
2023/05/30 08:41:50;;;;;;;6.93;4.07;;;;;;;21.71;46.05;99060.63;5004222;27;103276;-72
2023/05/30 08:44:20;;;;;;;6.07;3.92;;;;;;;22.22;45.40;99048.53;4990813;28;103218;-73
2023/05/30 08:46:48;;;;;;;4.80;3.40;;;;;;;23.92;43.40;99057.88;4991753;28;102918;-73
2023/05/30 08:49:22;;;;;;;4.67;3.47;;;;;;;25.78;40.46;99042.34;5009139;27;102883;-74
2023/05/30 08:51:55;;;;;;;6.30;4.30;;;;;;;24.59;39.84;99043.16;4994473;28;104219;-74
2023/05/30 08:54:28;;;;;;;7.00;3.60;;;;;;;23.73;43.25;99056.59;5008400;27;103081;-73
2023/05/30 08:57:03;;;;;;;4.75;3.40;;;;;;;24.72;40.65;99046.03;4986201;28;103196;-74
2023/05/30 08:59:32;;;;;;;4.90;3.67;;;;;;;23.97;43.04;99052.78;5008935;28;103563;-73
2023/05/30 09:02:01;;;;;;;5.40;3.63;;;;;;;25.57;39.43;99045.13;5011607;28;104324;-74
2023/05/30 09:04:30;;;;;;;7.18;3.80;;;;;;;25.38;39.92;99047.47;5008678;28;103240;-73
2023/05/30 09:07:05;;;;;;;6.35;4.00;;;;;;;24.64;40.70;99038.03;5007097;28;102636;-73
2023/05/30 09:09:34;;;;;;;4.97;3.55;;;;;;;25.48;40.30;99033.63;5003709;28;102756;-73
2023/05/30 09:12:02;;;;;;;4.60;3.63;;;;;;;24.35;40.69;99043.53;4992858;28;104181;-72
2023/05/30 09:14:30;;;;;;;8.15;3.90;;;;;;;24.11;42.82;99043.88;5015593;27;104767;-73
2023/05/30 09:16:58;;;;;;;5.13;3.63;;;;;;;25.67;37.85;99038.34;5010338;27;103156;-72
2023/05/30 09:19:27;;;;;;;8.15;4.30;;;;;;;24.44;42.43;99047.78;5006232;27;104085;-72
2023/05/30 09:21:58;;;;;;;5.97;3.63;;;;;;;23.77;41.38;99048.97;4989655;28;103961;-72
2023/05/30 09:24:58;;;;;;;6.22;3.80;;;;;;;26.70;40.49;99038.16;5011769;27;103603;-73
2023/05/30 09:27:26;;;;;;;7.20;3.83;;;;;;;27.94;37.42;99026.44;5009978;27;102796;-72
2023/05/30 09:29:54;;;;;;;5.45;3.28;;;;;;;26.65;38.91;99037.94;4982048;28;104125;-72
2023/05/30 09:32:28;;;;;;;5.70;3.75;;;;;;;25.77;40.54;99038.78;5011546;27;104025;-73
2023/05/30 09:34:57;;;;;;;4.65;3.60;;;;;;;25.15;39.88;99037.94;5003232;27;103251;-73
2023/05/30 09:37:25;;;;;;;7.63;3.72;;;;;;;26.06;39.47;99036.88;5010020;27;103130;-73
2023/05/30 09:40:07;;;;;;;5.07;3.63;;;;;;;26.27;37.81;99039.50;5008480;27;104369;-72
2023/05/30 09:42:39;;;;;;;8.52;4.00;;;;;;;24.52;41.33;99031.47;5010011;28;104004;-72
2023/05/30 09:45:09;;;;;;;5.93;4.00;;;;;;;24.30;41.29;99043.25;5013790;27;103823;-73
2023/05/30 09:47:44;;;;;;;4.63;3.50;;;;;;;25.14;39.95;99036.25;5009136;27;102901;-72
2023/05/30 09:50:13;;;;;;;6.45;3.45;;;;;;;25.95;38.78;99035.56;5007877;27;104068;-73
2023/05/30 09:52:42;;;;;;;4.68;3.55;;;;;;;25.60;38.96;99029.31;5006547;28;103338;-73
2023/05/30 09:55:14;;;;;;;6.93;3.38;;;;;;;26.11;39.24;99028.97;5013238;27;103480;-72
2023/05/30 09:57:46;;;;;;;6.88;3.75;;;;;;;24.56;39.27;99035.44;4993481;28;102828;-72
2023/05/30 10:00:16;;;;;;;5.63;3.33;;;;;;;26.66;38.67;99028.78;4993128;28;104168;-73
2023/05/30 10:02:52;;;;;;;5.78;3.40;;;;;;;27.22;35.37;99023.00;5006610;28;104408;-72
2023/05/30 10:05:22;;;;;;;6.95;3.50;;;;;;;27.44;36.84;99021.78;4990693;28;103172;-72
2023/05/30 10:07:51;;;;;;;5.27;3.73;;;;;;;27.42;35.89;99021.16;4985390;28;102896;-72
2023/05/30 10:10:21;;;;;;;6.45;3.78;;;;;;;27.81;35.02;99018.38;5013315;28;102835;-73
2023/05/30 10:12:50;;;;;;;6.78;3.53;;;;;;;28.22;34.77;99006.31;5007675;27;103918;-72
2023/05/30 10:15:19;;;;;;;10.98;4.10;;;;;;;28.38;33.41;99012.06;5010278;27;103183;-72
2023/05/30 10:17:50;;;;;;;5.90;3.83;;;;;;;25.35;38.41;99017.25;5006246;28;102570;-72
2023/05/30 10:20:22;;;;;;;5.57;3.53;;;;;;;27.62;35.98;99008.41;4995974;28;104091;-72
2023/05/30 10:22:52;;;;;;;6.00;3.63;;;;;;;28.63;34.14;98999.41;5013034;28;103584;-73
2023/05/30 10:25:23;;;;;;;6.00;4.07;;;;;;;25.79;38.10;99009.69;5011336;27;104317;-73
2023/05/30 10:27:53;;;;;;;7.33;3.80;;;;;;;26.22;37.57;99001.34;4996884;28;102794;-73
2023/05/30 10:30:24;;;;;;;5.82;3.78;;;;;;;24.17;40.10;98999.91;5015636;28;103863;-72
2023/05/30 10:32:59;;;;;;;5.73;3.70;;;;;;;25.05;39.76;98994.16;5008093;28;104237;-73
2023/05/30 10:35:28;;;;;;;6.68;3.72;;;;;;;25.30;38.16;98992.69;4990551;28;103592;-73
2023/05/30 10:37:59;;;;;;;5.30;3.67;;;;;;;24.53;40.08;98989.94;5005356;27;102584;-72
2023/05/30 10:40:40;;;;;;;5.65;4.10;;;;;;;26.08;40.22;98986.88;4989325;28;103278;-72
2023/05/30 10:43:26;;;;;;;6.53;3.50;;;;;;;27.79;37.45;98979.72;5016421;27;103931;-72
2023/05/30 10:46:08;;;;;;;6.30;4.10;;;;;;;26.42;36.88;98988.69;4989239;28;103198;-72
2023/05/30 10:48:44;;;;;;;7.05;3.80;;;;;;;25.61;37.67;98989.59;5014146;27;103021;-72
2023/05/30 10:51:13;;;;;;;7.40;3.70;;;;;;;26.78;36.31;98994.63;5013529;27;103652;-72
2023/05/30 10:53:42;;;;;;;5.25;3.50;;;;;;;27.46;36.13;98987.13;5005453;27;103292;-73
2023/05/30 10:56:38;;;;;;;6.25;3.40;;;;;;;28.02;34.87;98981.94;5005523;27;104191;-72
2023/05/30 10:59:12;;;;;;;5.05;3.60;;;;;;;28.66;33.28;98974.53;5010400;27;103023;-72
2023/05/30 11:01:40;;;;;;;4.45;3.13;;;;;;;29.79;32.94;98973.28;5013485;27;102870;-72
2023/05/30 11:04:11;;;;;;;6.18;3.47;;;;;;;26.88;35.22;98978.81;4991353;28;104265;-72
2023/05/30 11:06:43;;;;;;;7.32;3.78;;;;;;;25.91;37.80;98975.59;5008839;27;103206;-72
2023/05/30 11:09:14;;;;;;;4.37;3.13;;;;;;;28.58;34.05;98966.59;5006698;27;102811;-72
2023/05/30 11:11:45;;;;;;;5.87;3.57;;;;;;;27.38;35.25;98971.88;4995272;28;102658;-73
2023/05/30 11:14:15;;;;;;;5.32;3.47;;;;;;;27.96;35.55;98967.34;5013544;27;103279;-72
2023/05/30 11:16:50;;;;;;;4.25;3.55;;;;;;;26.65;34.10;98972.91;5016426;27;103172;-73
2023/05/30 11:19:20;;;;;;;4.30;3.40;;;;;;;28.23;33.38;98957.22;5011087;27;102828;-72
2023/05/30 11:21:58;;;;;;;3.53;3.22;;;;;;;27.94;33.24;98952.31;5004695;27;103130;-72
2023/05/30 11:24:28;;;;;;;5.65;3.58;;;;;;;26.93;35.47;98957.31;5005161;28;103266;-72
2023/05/30 11:26:59;;;;;;;8.30;3.30;;;;;;;27.49;35.14;98960.41;4999184;28;104518;-72
2023/05/30 11:29:31;;;;;;;4.90;3.33;;;;;;;25.81;34.65;98953.50;5015307;27;102933;-73
2023/05/30 11:32:00;;;;;;;3.95;3.55;;;;;;;27.00;35.51;98951.91;5016300;27;103636;-73
2023/05/30 11:34:28;;;;;;;5.73;3.57;;;;;;;25.72;37.23;98951.97;5008738;27;103867;-73
2023/05/30 11:36:57;;;;;;;5.20;3.50;;;;;;;27.18;36.00;98952.06;4994371;28;103271;-72